Latest Weather Observations for Kiama

IDN60801

Issued at 9:32 am EST Wednesday 5 August 2015 (issued every 30 minutes, with the page automatically refreshed every 10 minutes)

About weather observations | Map of weather stations | Latest weather observations for NSW | Other Formats
Station Details ID: 068242 Name: KIAMA (BOMBO HEADLAND) Lat: -34.65 Lon: 150.86 Height: 15.5 m
Data from the previous 72 hours. | See also: Recent months at Kiama
Date/Time
EST
Temp
°C
App
Temp
°C
Dew
Point
Rel
Hum
%
Delta-T
°C
Wind Press
QNH
hPa
Press
MSL
hPa
Rain
since 9 am
mm
Dir
 
Spd
km/h
Gust
km/h
Spd
kts
Gust
kts
05/09:30am 11.3 3.4 1.0 49 4.3 W 32 50 17 27 - - 0.0
05/09:00am 10.6 2.6 0.6 50 4.1 W 32 54 17 29 - - 0.0
05/08:33am 10.3 1.4 0.6 51 4.0 W 37 57 20 31 - - 0.0
05/08:30am 10.3 0.6 0.6 51 4.0 W 41 57 22 31 - - 0.0
05/08:00am 9.8 0.8 0.2 51 3.9 W 37 57 20 31 - - 0.0
05/07:48am 10.0 3.5 0.1 50 4.0 W 24 52 13 28 - - 0.0
05/07:30am 9.6 4.3 -0.3 50 3.9 WNW 17 35 9 19 - - 0.0
05/07:00am 8.4 4.2 -1.1 51 3.7 NNW 11 24 6 13 - - 0.0
05/06:30am 8.5 1.8 -1.3 50 3.8 W 24 37 13 20 - - 0.0
05/06:00am 8.8 0.5 -1.6 48 4.0 WSW 32 61 17 33 - - 0.0
05/05:57am 8.7 1.5 -1.7 48 4.0 W 26 46 14 25 - - 0.0
05/05:30am 8.6 2.5 -2.1 47 4.0 WNW 20 33 11 18 - - 0.0
05/05:00am 8.5 0.1 -2.1 47 4.0 W 32 43 17 23 - - 0.0
05/04:30am 8.0 1.6 -1.8 50 3.7 WSW 22 44 12 24 - - 0.0
05/04:00am 8.2 0.7 -1.6 50 3.7 WSW 28 43 15 23 - - 0.0
05/03:30am 7.7 0.9 -1.8 51 3.6 W 24 39 13 21 - - 0.0
05/03:19am 7.9 0.3 -1.9 50 3.7 W 28 46 15 25 - - 0.0
05/03:00am 7.7 0.5 -2.0 50 3.6 W 26 43 14 23 - - 0.0
05/02:30am 7.5 1.0 -2.2 50 3.6 WNW 22 43 12 23 - - 0.0
05/02:00am 7.7 0.1 -2.3 49 3.7 WNW 28 50 15 27 - - 0.0
05/01:31am 7.6 0.0 -2.4 49 3.7 W 28 48 15 26 - - 0.0
05/01:30am 7.6 -0.4 -2.4 49 3.7 W 30 48 16 26 - - 0.0
05/01:11am 7.5 -0.1 -2.0 51 3.5 W 28 54 15 29 - - 0.0
05/01:00am 7.3 1.3 -1.6 53 3.3 WNW 20 37 11 20 - - 0.0
05/12:30am 7.4 0.6 -1.5 53 3.4 W 24 48 13 26 - - 0.0
05/12:10am 7.6 0.0 -1.9 51 3.6 W 28 48 15 26 - - 0.0
05/12:00am 7.8 0.3 -1.7 51 3.6 W 28 46 15 25 - - 0.0
 
Date/Time
EST
Temp
°C
App
Temp
°C
Dew
Point
Rel
Hum
%
Delta-T
°C
Wind Press
QNH
hPa
Press
MSL
hPa
Rain
since 9 am
mm
Dir
 
Spd
km/h
Gust
km/h
Spd
kts
Gust
kts
04/11:30pm 7.9 1.1 -1.9 50 3.7 W 24 37 13 20 - - 0.0
04/11:00pm 8.0 0.1 -1.8 50 3.7 W 30 50 16 27 - - 0.0
04/10:59pm 7.9 0.3 -1.9 50 3.7 W 28 50 15 27 - - 0.0
04/10:30pm 8.0 1.6 -1.8 50 3.7 W 22 35 12 19 - - 0.0
04/10:00pm 7.8 2.8 -1.4 52 3.5 WNW 15 26 8 14 - - 0.0
04/09:30pm 7.9 2.8 -1.9 50 3.7 WNW 15 26 8 14 - - 0.0
04/09:00pm 8.3 2.8 -2.0 48 3.9 WNW 17 32 9 17 - - 0.0
04/08:30pm 8.3 2.8 -1.8 49 3.8 WNW 17 30 9 16 - - 0.0
04/08:00pm 8.6 3.2 -1.5 49 3.9 W 17 30 9 16 - - 0.0
04/07:30pm 8.9 4.7 -1.2 49 3.9 W 11 20 6 11 - - 0.0
04/07:00pm 9.4 4.8 -0.8 49 4.0 W 13 26 7 14 - - 0.0
04/06:30pm 8.5 5.5 2.3 65 2.6 W 7 9 4 5 - - 0.0
04/06:00pm 8.8 5.9 2.4 64 2.7 W 7 11 4 6 - - 0.0
04/05:30pm 9.7 7.3 2.1 59 3.2 NW 4 6 2 3 - - 0.0
04/05:00pm 10.7 7.9 2.3 56 3.6 N 6 9 3 5 - - 0.0
04/04:30pm 11.5 8.5 2.0 52 4.1 N 7 11 4 6 - - 0.0
04/04:00pm 12.1 8.7 1.7 49 4.4 NE 9 13 5 7 - - 0.0
04/03:30pm 12.4 8.9 1.4 47 4.7 NE 9 13 5 7 - - 0.0
04/03:00pm 12.8 9.7 1.2 45 4.9 NE 7 13 4 7 - - 0.0
04/02:30pm 12.8 9.6 0.9 44 5.0 ENE 7 13 4 7 - - 0.0
04/02:00pm 12.8 9.8 0.5 43 5.1 ENE 6 9 3 5 - - 0.0
04/01:30pm 11.7 8.4 -0.1 44 4.8 ESE 7 9 4 5 - - 0.0
04/01:00pm 11.8 7.8 0.6 46 4.6 SE 11 15 6 8 - - 0.0
04/12:30pm 11.9 7.6 1.0 47 4.6 SE 13 17 7 9 - - 0.0
04/12:00pm 11.8 7.1 0.6 46 4.6 SSE 15 19 8 10 - - 0.0
04/11:30am 11.2 6.0 0.0 46 4.6 SSE 17 24 9 13 - - 0.0
04/11:00am 11.3 6.4 -0.8 43 4.8 S 15 20 8 11 - - 0.0
04/10:30am 11.1 5.7 -1.6 41 5.0 S 17 20 9 11 - - 0.0
04/10:00am 10.6 5.8 -2.4 40 5.0 SSW 13 20 7 11 - - 0.0
04/09:30am 10.6 6.3 -1.8 42 4.8 SW 11 19 6 10 - - 0.0
04/09:00am 10.1 6.0 -2.9 40 4.9 WSW 9 13 5 7 - - 0.0
04/08:30am 9.7 5.9 -0.5 49 4.0 SW 9 13 5 7 - - 0.0
04/08:00am 9.1 5.6 -1.3 48 4.0 W 7 11 4 6 - - 0.0
04/07:30am 8.8 4.8 0.3 55 3.4 W 11 19 6 10 - - 0.0
04/07:00am 8.2 4.3 0.9 60 2.9 SW 11 19 6 10 - - 0.0
04/06:30am 8.1 4.6 1.5 63 2.7 SW 9 17 5 9 - - 0.0
04/06:00am 6.5 3.3 1.0 68 2.2 WSW 7 13 4 7 - - 0.0
04/05:30am 6.5 3.3 0.8 67 2.2 W 7 13 4 7 - - 0.0
04/05:00am 6.7 3.6 1.4 69 2.1 W 7 11 4 6 - - 0.0
04/04:30am 7.3 4.0 2.2 70 2.1 WSW 9 13 5 7 - - 0.0
04/04:00am 6.5 3.1 1.6 71 2.0 WSW 9 13 5 7 - - 0.0
04/03:30am 7.2 4.2 2.3 71 2.0 WSW 7 13 4 7 - - 0.0
04/03:00am 7.1 3.7 1.6 68 2.2 W 9 13 5 7 - - 0.0
04/02:30am 7.7 3.2 2.0 67 2.3 W 15 19 8 10 - - 0.0
04/02:00am 8.1 5.4 2.6 68 2.3 W 6 9 3 5 - - 0.0
04/01:30am 8.0 5.7 2.9 70 2.2 WSW 4 7 2 4 - - 0.0
04/01:00am 8.2 5.6 3.3 71 2.1 WSW 6 9 3 5 - - 0.0
04/12:30am 8.3 5.1 3.2 70 2.2 WSW 9 13 5 7 - - 0.0
04/12:00am 8.1 5.2 2.6 68 2.3 WNW 7 11 4 6 - - 0.0
 
Date/Time
EST
Temp
°C
App
Temp
°C
Dew
Point
Rel
Hum
%
Delta-T
°C
Wind Press
QNH
hPa
Press
MSL
hPa
Rain
since 9 am
mm
Dir
 
Spd
km/h
Gust
km/h
Spd
kts
Gust
kts
03/11:30pm 9.1 6.1 4.1 71 2.2 NW 9 15 5 8 - - 0.0
03/11:00pm 10.6 7.6 6.2 74 2.0 SSW 11 15 6 8 - - 0.0
03/10:30pm 10.2 8.0 6.4 77 1.8 SSW 7 13 4 7 - - 0.0
03/10:00pm 10.3 6.7 6.8 79 1.6 SW 15 17 8 9 - - 0.0
03/09:30pm 10.5 8.1 7.2 80 1.6 SW 9 13 5 7 - - 0.0
03/09:00pm 10.6 8.7 7.5 81 1.5 SSW 7 9 4 5 - - 0.0
03/08:30pm 10.6 8.3 7.5 81 1.5 SSW 9 15 5 8 - - 0.0
03/08:00pm 11.1 6.0 7.8 80 1.6 SSW 24 32 13 17 - - 0.0
03/07:30pm 11.1 6.9 7.4 78 1.8 SSW 19 26 10 14 - - 0.0
03/07:00pm 11.6 5.3 7.5 76 2.0 SSW 30 35 16 19 - - 0.0
03/06:30pm 11.7 3.9 6.8 72 2.3 SSW 37 52 20 28 - - 0.0
03/06:22pm 12.9 5.7 5.8 62 3.3 SW 33 52 18 28 - - 0.0
03/06:00pm 13.3 5.1 2.5 48 4.7 WSW 35 54 19 29 - - 0.0
03/05:57pm 13.3 5.1 2.5 48 4.7 WSW 35 54 19 29 - - 0.0
03/05:30pm 13.4 6.6 2.9 49 4.7 W 28 44 15 24 - - 0.0
03/05:00pm 13.7 7.6 2.6 47 4.9 W 24 41 13 22 - - 0.0
03/04:33pm 14.3 6.4 2.5 45 5.2 W 33 52 18 28 - - 0.0
03/04:30pm 14.4 6.2 2.6 45 5.2 W 35 52 19 28 - - 0.0
03/04:00pm 14.8 6.2 2.4 43 5.5 W 37 56 20 30 - - 0.0
03/03:51pm 15.0 8.0 2.2 42 5.7 W 28 56 15 30 - - 0.0
03/03:30pm 15.5 9.8 3.0 43 5.7 W 22 41 12 22 - - 0.0
03/03:00pm 15.5 7.8 2.3 41 5.9 W 32 54 17 29 - - 0.0
03/02:30pm 15.6 7.9 2.4 41 5.9 W 32 54 17 29 - - 0.0
03/02:19pm 15.8 8.9 2.6 41 5.9 W 28 54 15 29 - - 0.0
03/02:00pm 16.2 10.9 2.9 41 6.0 W 20 39 11 21 - - 0.0
03/01:41pm 16.3 9.4 2.7 40 6.2 W 28 52 15 28 - - 0.0
03/01:30pm 16.0 9.1 2.8 41 6.0 W 28 46 15 25 - - 0.0
03/01:15pm 15.9 8.9 2.0 39 6.2 W 28 48 15 26 - - 0.0
03/01:00pm 16.5 11.5 3.6 42 6.0 WNW 19 35 10 19 - - 0.0
03/12:30pm 16.2 11.0 2.6 40 6.1 WNW 19 35 10 19 - - 0.0
03/12:00pm 15.9 10.5 2.7 41 6.0 WNW 20 35 11 19 - - 0.0
03/11:30am 15.8 10.7 2.9 42 5.8 WNW 19 32 10 17 - - 0.0
03/11:00am 15.8 11.2 3.6 44 5.6 WNW 17 33 9 18 - - 0.0
03/10:30am 15.1 11.2 3.3 45 5.4 W 13 24 7 13 - - 0.0
03/10:00am 14.9 10.9 2.8 44 5.4 WNW 13 24 7 13 - - 0.0
03/09:39am 14.3 8.9 2.5 45 5.2 W 20 43 11 23 - - 0.0
03/09:30am 14.6 11.0 2.8 45 5.3 WNW 11 20 6 11 - - 0.0
03/09:00am 13.7 8.3 2.3 46 5.0 W 20 33 11 18 - - 0.0
03/08:30am 13.1 8.7 2.9 50 4.5 W 15 37 8 20 - - 0.0
03/08:00am 12.5 8.4 2.4 50 4.4 W 13 26 7 14 - - 0.0
03/07:30am 11.8 8.4 1.7 50 4.3 W 9 20 5 11 - - 0.0
03/07:00am 11.7 6.7 1.6 50 4.3 W 17 35 9 19 - - 0.0
03/06:30am 11.7 5.8 1.6 50 4.3 WSW 22 43 12 23 - - 0.0
03/06:00am 11.6 5.7 1.8 51 4.2 W 22 39 12 21 - - 0.0
03/05:30am 11.2 6.2 1.5 51 4.1 W 17 33 9 18 - - 0.0
03/05:00am 11.1 7.9 0.8 49 4.3 WNW 7 17 4 9 - - 0.0
03/04:30am 11.5 8.8 0.6 47 4.5 SSE 4 9 2 5 - - 0.0
03/04:00am 11.4 7.4 0.2 46 4.6 NW 11 26 6 14 - - 0.0
03/03:30am 11.7 5.9 0.2 45 4.7 W 20 35 11 19 - - 0.0
03/03:00am 11.7 4.8 0.2 45 4.7 W 26 43 14 23 - - 0.0
03/02:30am 11.7 3.7 0.5 46 4.6 WSW 32 56 17 30 - - 0.0
03/02:27am 11.7 4.1 0.5 46 4.6 WSW 30 56 16 30 - - 0.0
03/02:00am 11.4 5.8 0.2 46 4.6 WSW 19 35 10 19 - - 0.0
03/01:30am 10.9 6.8 0.0 47 4.4 WSW 11 19 6 10 - - 0.0
03/01:00am 10.9 6.4 -0.2 46 4.5 W 13 28 7 15 - - 0.0
03/12:30am 11.3 6.0 -0.8 43 4.8 WSW 17 32 9 17 - - 0.0
03/12:00am 11.6 7.9 -0.2 44 4.8 S 9 32 5 17 - - 0.0
 
Date/Time
EST
Temp
°C
App
Temp
°C
Dew
Point
Rel
Hum
%
Delta-T
°C
Wind Press
QNH
hPa
Press
MSL
hPa
Rain
since 9 am
mm
Dir
 
Spd
km/h
Gust
km/h
Spd
kts
Gust
kts
02/11:30pm 12.0 8.4 0.8 46 4.7 SSW 9 20 5 11 - - 0.0
02/11:00pm 12.5 9.2 -1.1 39 5.5 W 6 11 3 6 - - 0.0
02/10:30pm 13.1 9.9 -0.5 39 5.6 NNW 6 7 3 4 - - 0.0
02/10:00pm 13.4 10.6 2.3 47 4.9 NW 6 9 3 5 - - 0.0
02/09:30pm 14.7 10.7 5.0 52 4.5 NW 15 35 8 19 - - 0.0
02/09:20pm 15.0 7.5 4.4 49 4.9 W 33 54 18 29 - - 0.0
02/09:00pm 15.6 7.7 4.6 48 5.2 W 35 52 19 28 - - 0.0
02/08:49pm 15.6 9.2 5.2 50 4.9 WNW 28 48 15 26 - - 0.0
02/08:30pm 16.4 12.7 6.2 51 5.0 WSW 15 26 8 14 - - 0.0
02/08:00pm 16.6 14.7 7.5 55 4.6 ENE 7 17 4 9 - - 0.0
02/07:30pm 16.8 13.3 7.4 54 4.7 WNW 15 32 8 17 - - 0.0
02/07:00pm 17.6 12.8 7.4 51 5.1 NW 22 41 12 22 - - 0.0
02/06:51pm 17.9 12.0 7.6 51 5.2 WNW 28 48 15 26 - - 0.0
02/06:30pm 18.6 13.1 7.4 48 5.7 WNW 26 46 14 25 - - 0.0
02/06:02pm 19.3 13.2 6.8 44 6.3 WNW 28 56 15 30 - - 0.0
02/06:00pm 19.4 13.7 6.8 44 6.3 WNW 26 43 14 23 - - 0.0
02/05:30pm 19.7 13.6 6.4 42 6.7 NW 28 54 15 29 - - 0.0
02/05:26pm 19.7 13.6 6.4 42 6.7 WNW 28 46 15 25 - - 0.0
02/05:00pm 20.3 16.2 6.3 40 7.0 W 17 32 9 17 - - 0.0
02/04:30pm 21.3 17.5 6.0 37 7.7 NW 15 28 8 15 - - 0.0
02/04:00pm 22.5 18.8 6.3 35 8.2 NW 15 30 8 16 - - 0.0
02/03:30pm 22.9 18.2 6.2 34 8.5 NW 20 37 11 20 - - 0.0
02/03:00pm 23.1 18.6 6.8 35 8.4 NNW 20 35 11 19 - - 0.0
02/02:30pm 23.2 18.3 6.9 35 8.4 NNW 22 37 12 20 - - 0.0
02/02:00pm 23.4 19.2 7.5 36 8.3 NNW 19 28 10 15 - - 0.0
02/01:30pm 23.0 17.2 7.9 38 7.9 NNW 28 56 15 30 - - 0.0
02/01:13pm 21.8 16.8 9.7 46 6.5 N 26 52 14 28 - - 0.0
02/01:00pm 17.7 13.6 11.3 66 3.5 NNE 24 33 13 18 - - 0.0
02/12:30pm 18.0 15.0 12.5 70 3.1 NNE 20 28 11 15 - - 0.0
02/12:00pm 16.8 13.9 11.1 69 3.1 NNE 17 22 9 12 - - 0.0
02/11:30am 17.7 15.9 11.0 65 3.6 NNE 11 19 6 10 - - 0.0
02/11:00am 18.4 17.9 12.8 70 3.1 NE 7 9 4 5 - - 0.0
02/10:30am 17.9 17.4 12.1 69 3.2 N 6 9 3 5 - - 0.0
02/10:00am 15.7 14.7 11.1 74 2.5 NNW 7 11 4 6 - - 0.0

Other Formats:

Comma delimited format used in spreadsheet applications
http://www.bom.gov.au/fwo/IDN60801/IDN60801.95749.axf

JavaScript Object Notation format (JSON) in row-major order
http://www.bom.gov.au/fwo/IDN60801/IDN60801.95749.json